Time;durP1;ratioP1;P1;durP2;ratioP2;P2;SDS_P1;SDS_P2;PMS_P1;PMS_P2;Temp;Humidity;BMP_temperature;BMP_pressure;BME280_temperature;BME280_humidity;BME280_pressure;Samples;Min_cycle;Max_cycle;Signal;HPM_P1;HPM_P2
2022/09/13 00:00:22;;;;;;;1.95;0.90;;;18.20;60.30;;;;;;4101708;28;20055;-39
2022/09/13 00:02:45;;;;;;;0.83;0.80;;;18.20;60.20;;;;;;4100344;28;20097;-38
2022/09/13 00:05:08;;;;;;;2.85;1.15;;;18.20;60.10;;;;;;4099305;28;20293;-38
2022/09/13 00:07:30;;;;;;;3.17;0.85;;;18.30;60.00;;;;;;4098468;28;20499;-38
2022/09/13 00:09:53;;;;;;;3.78;0.95;;;18.30;60.00;;;;;;4097160;28;20047;-38
2022/09/13 00:12:15;;;;;;;1.45;0.90;;;18.30;59.90;;;;;;4100824;28;20046;-38
2022/09/13 00:14:38;;;;;;;4.25;1.27;;;18.40;59.80;;;;;;4102074;28;20161;-39
2022/09/13 00:17:01;;;;;;;2.83;1.23;;;18.40;59.80;;;;;;4099459;28;20070;-38
2022/09/13 00:19:23;;;;;;;3.83;0.73;;;18.40;59.70;;;;;;4097748;28;20053;-38
2022/09/13 00:21:47;;;;;;;2.42;0.90;;;18.40;59.90;;;;;;4100874;28;20043;-38
2022/09/13 00:24:09;;;;;;;5.45;0.80;;;18.40;59.40;;;;;;4099302;28;20042;-37
2022/09/13 00:26:32;;;;;;;3.53;1.27;;;18.40;59.10;;;;;;4094092;28;20046;-37
2022/09/13 00:28:57;;;;;;;2.28;1.00;;;18.40;58.00;;;;;;4098383;28;20498;-37
2022/09/13 00:31:26;;;;;;;2.70;1.40;;;18.40;57.80;;;;;;4095952;28;20035;-37
2022/09/13 00:33:49;;;;;;;3.42;1.30;;;18.40;58.10;;;;;;4093140;28;20335;-38
2022/09/13 00:36:14;;;;;;;2.72;1.73;;;18.40;57.30;;;;;;4095855;28;20039;-37
2022/09/13 00:38:40;;;;;;;3.83;1.40;;;18.40;57.20;;;;;;4101452;28;20526;-37
2022/09/13 00:41:05;;;;;;;2.15;1.80;;;18.30;57.00;;;;;;4093308;28;20058;-36
2022/09/13 00:43:48;;;;;;;2.25;1.40;;;18.30;57.10;;;;;;4096540;28;20589;-38
2022/09/13 00:46:36;;;;;;;2.97;1.40;;;18.30;57.60;;;;;;4098749;28;20046;-38
2022/09/13 00:49:15;;;;;;;4.75;1.60;;;18.30;57.70;;;;;;4098449;28;20043;-39
2022/09/13 00:51:39;;;;;;;2.53;1.48;;;18.40;57.30;;;;;;4096808;28;20054;-39
2022/09/13 00:54:04;;;;;;;3.47;1.90;;;18.30;57.00;;;;;;4097545;28;20098;-41
2022/09/13 00:56:44;;;;;;;4.22;2.00;;;18.30;57.80;;;;;;4096112;28;20039;-39
2022/09/13 00:59:47;;;;;;;17.55;2.72;;;18.30;57.60;;;;;;4101924;28;20039;-38
2022/09/13 01:02:11;;;;;;;17.92;3.10;;;18.40;57.70;;;;;;4069979;29;20083;-38
2022/09/13 01:04:36;;;;;;;16.35;3.05;;;18.40;57.80;;;;;;4071847;29;20046;-38
2022/09/13 01:07:02;;;;;;;19.58;3.35;;;18.40;57.70;;;;;;4085880;28;20075;-38
2022/09/13 01:09:25;;;;;;;7.22;2.42;;;18.40;57.60;;;;;;4101252;28;20038;-37
2022/09/13 01:12:03;;;;;;;9.35;2.80;;;18.40;57.70;;;;;;4097984;28;20494;-37
2022/09/13 01:14:26;;;;;;;7.95;2.45;;;18.40;57.60;;;;;;4097532;28;20420;-40
2022/09/13 01:16:49;;;;;;;7.13;2.08;;;18.50;57.40;;;;;;4097120;28;20042;-39
2022/09/13 01:19:12;;;;;;;11.75;2.72;;;18.50;57.30;;;;;;4088379;28;20043;-40
2022/09/13 01:22:05;;;;;;;4.05;1.85;;;18.50;57.10;;;;;;4099974;28;20053;-42
2022/09/13 01:24:36;;;;;;;4.15;1.50;;;18.50;57.10;;;;;;4094578;28;20441;-39
2022/09/13 01:27:35;;;;;;;4.30;1.92;;;18.50;57.00;;;;;;4098036;28;20034;-41
2022/09/13 01:30:23;;;;;;;6.30;2.10;;;18.50;56.90;;;;;;4099843;28;20046;-42
2022/09/13 01:33:06;;;;;;;4.53;1.50;;;18.60;56.80;;;;;;4097107;28;20090;-41
2022/09/13 01:35:35;;;;;;;4.10;1.50;;;18.60;56.80;;;;;;4095397;28;20039;-43
2022/09/13 01:38:25;;;;;;;1.90;1.40;;;18.60;56.60;;;;;;4095307;28;20051;-41
2022/09/13 01:41:03;;;;;;;5.15;1.73;;;18.60;56.60;;;;;;4095382;28;20102;-38
2022/09/13 01:43:25;;;;;;;2.20;1.50;;;18.60;56.40;;;;;;4098561;28;20046;-43
2022/09/13 01:46:12;;;;;;;2.17;1.40;;;18.70;56.30;;;;;;4099165;28;20042;-43
2022/09/13 01:48:59;;;;;;;8.52;1.83;;;18.70;56.70;;;;;;4078766;28;20043;-40
2022/09/13 01:51:41;;;;;;;3.55;1.60;;;18.70;56.20;;;;;;4095520;28;20102;-40
2022/09/13 01:54:30;;;;;;;5.32;1.60;;;18.70;55.90;;;;;;4094105;28;20027;-40
2022/09/13 01:56:55;;;;;;;3.78;1.63;;;18.70;55.90;;;;;;4097348;28;20137;-40
2022/09/13 01:59:32;;;;;;;2.38;1.40;;;18.80;55.90;;;;;;4101231;28;20077;-42
2022/09/13 02:02:04;;;;;;;2.13;1.50;;;18.80;55.80;;;;;;4097866;28;20051;-47
2022/09/13 02:04:38;;;;;;;3.28;1.45;;;18.80;55.60;;;;;;4093972;28;20049;-40
2022/09/13 02:07:16;;;;;;;2.50;1.20;;;18.70;55.60;;;;;;4093309;28;20066;-41
2022/09/13 02:09:43;;;;;;;2.70;1.63;;;18.80;55.40;;;;;;4095225;28;20057;-39
2022/09/13 02:12:21;;;;;;;2.85;1.50;;;18.80;55.60;;;;;;4095311;28;20049;-39
2022/09/13 02:14:47;;;;;;;4.53;1.35;;;18.80;55.60;;;;;;4098069;28;20389;-41
2022/09/13 02:17:22;;;;;;;5.05;1.67;;;18.80;55.50;;;;;;4095280;28;20142;-40
2022/09/13 02:19:54;;;;;;;2.63;1.55;;;18.80;55.20;;;;;;4093565;28;20090;-40
2022/09/13 02:22:21;;;;;;;3.72;1.73;;;18.80;55.20;;;;;;4096134;28;20051;-39
2022/09/13 02:24:51;;;;;;;3.47;1.73;;;18.80;55.10;;;;;;4093680;28;20490;-39
2022/09/13 02:27:21;;;;;;;4.57;1.52;;;18.80;55.20;;;;;;4095870;28;20050;-39
2022/09/13 02:29:47;;;;;;;3.88;1.48;;;18.90;55.20;;;;;;4100051;28;20038;-39
2022/09/13 02:32:28;;;;;;;3.38;1.35;;;18.90;55.00;;;;;;4098105;28;20104;-39
2022/09/13 02:34:59;;;;;;;2.40;1.33;;;18.90;54.70;;;;;;4088568;28;20058;-39
2022/09/13 02:37:24;;;;;;;1.45;1.02;;;18.90;54.60;;;;;;4097313;28;20126;-40
2022/09/13 02:39:58;;;;;;;4.00;1.30;;;18.90;54.40;;;;;;4096252;28;20114;-40
2022/09/13 02:42:30;;;;;;;1.50;0.98;;;18.90;54.40;;;;;;4098514;28;20046;-41
2022/09/13 02:44:56;;;;;;;3.53;1.40;;;18.90;54.90;;;;;;4102345;28;20085;-41
2022/09/13 02:47:31;;;;;;;2.17;1.25;;;18.90;54.90;;;;;;4101251;28;20054;-41
2022/09/13 02:50:03;;;;;;;3.58;1.40;;;18.90;55.00;;;;;;4102267;28;20134;-41
2022/09/13 02:52:43;;;;;;;2.15;1.15;;;19.00;55.20;;;;;;4100798;28;20122;-42
2022/09/13 02:55:40;;;;;;;3.03;1.30;;;19.00;55.30;;;;;;4102657;28;20047;-45
2022/09/13 02:58:22;;;;;;;2.75;1.17;;;19.10;55.40;;;;;;4100663;28;20050;-48
2022/09/13 03:00:45;;;;;;;1.95;1.15;;;19.10;55.70;;;;;;4100039;28;20082;-45
2022/09/13 03:03:12;;;;;;;3.10;1.13;;;19.10;55.60;;;;;;4104687;28;20046;-46
2022/09/13 03:05:34;;;;;;;2.65;0.98;;;19.10;55.60;;;;;;4100270;28;20046;-44
2022/09/13 03:07:58;;;;;;;2.15;1.35;;;19.20;55.80;;;;;;4100503;28;20127;-47
2022/09/13 03:10:22;;;;;;;3.08;1.08;;;19.20;55.60;;;;;;4102963;28;20035;-44
2022/09/13 03:12:55;;;;;;;2.78;1.38;;;19.20;55.70;;;;;;4099976;28;20043;-43
2022/09/13 03:15:40;;;;;;;2.15;1.35;;;19.20;55.20;;;;;;4086845;28;20118;-40
2022/09/13 03:18:45;;;;;;;3.03;1.30;;;19.20;54.90;;;;;;4100674;28;20451;-40
2022/09/13 03:21:26;;;;;;;2.88;1.42;;;19.20;54.70;;;;;;4102761;28;20165;-41
2022/09/13 03:24:07;;;;;;;4.25;1.23;;;19.20;54.70;;;;;;4095323;28;20047;-40
2022/09/13 03:26:41;;;;;;;1.95;1.33;;;19.30;54.80;;;;;;4098091;28;20118;-41
2022/09/13 03:29:13;;;;;;;3.50;1.67;;;19.30;54.80;;;;;;4101943;28;20054;-40
2022/09/13 03:31:40;;;;;;;3.03;1.67;;;19.30;55.20;;;;;;4096087;28;20470;-40
2022/09/13 03:34:24;;;;;;;2.42;1.30;;;19.40;55.60;;;;;;4100253;28;20407;-40
2022/09/13 03:37:06;;;;;;;5.30;1.70;;;19.40;55.40;;;;;;4098937;28;20039;-40
2022/09/13 03:40:01;;;;;;;4.55;1.70;;;19.40;55.40;;;;;;4097720;28;20404;-41
2022/09/13 03:42:42;;;;;;;5.13;1.50;;;19.40;55.30;;;;;;4087036;28;20744;-41
2022/09/13 03:45:07;;;;;;;2.28;1.48;;;19.40;55.80;;;;;;4098028;28;20126;-42
2022/09/13 03:47:35;;;;;;;1.95;1.00;;;19.50;56.00;;;;;;4100999;28;20066;-45
2022/09/13 03:49:59;;;;;;;3.75;1.35;;;19.50;56.10;;;;;;4099576;28;20086;-44
2022/09/13 03:52:22;;;;;;;3.17;1.23;;;19.50;56.30;;;;;;4094797;28;20045;-41
2022/09/13 03:54:45;;;;;;;1.98;1.08;;;19.60;56.50;;;;;;4093092;28;20039;-40
2022/09/13 03:57:21;;;;;;;2.10;1.05;;;19.60;56.50;;;;;;4096538;28;20450;-38
2022/09/13 03:59:48;;;;;;;3.67;1.33;;;19.60;56.50;;;;;;4099122;28;20047;-44
2022/09/13 04:02:11;;;;;;;2.60;1.10;;;19.60;56.50;;;;;;4096158;28;20039;-44
2022/09/13 04:04:33;;;;;;;3.42;1.50;;;19.60;56.40;;;;;;4085366;28;20039;-42
2022/09/13 04:06:56;;;;;;;2.17;1.20;;;19.70;56.40;;;;;;4102624;28;20042;-40
2022/09/13 04:09:19;;;;;;;6.03;1.17;;;19.80;56.50;;;;;;4102142;28;20109;-42
2022/09/13 04:11:41;;;;;;;1.65;0.90;;;19.80;56.40;;;;;;4096454;28;20101;-44
2022/09/13 04:14:04;;;;;;;1.50;0.77;;;19.90;56.50;;;;;;4093397;28;20507;-40
2022/09/13 04:16:26;;;;;;;1.45;0.90;;;19.90;56.50;;;;;;4095604;28;20037;-40
2022/09/13 04:18:49;;;;;;;2.42;1.10;;;19.90;56.60;;;;;;4093234;28;20042;-41
2022/09/13 04:21:11;;;;;;;2.90;0.95;;;20.00;56.40;;;;;;4094519;28;20058;-41
2022/09/13 04:23:34;;;;;;;3.33;1.40;;;20.10;56.70;;;;;;4094710;28;20094;-41
2022/09/13 04:26:05;;;;;;;2.15;0.75;;;20.10;55.90;;;;;;4093878;28;20109;-44
2022/09/13 04:28:27;;;;;;;1.70;0.82;;;20.20;56.00;;;;;;4093805;28;20278;-42
2022/09/13 04:30:50;;;;;;;2.60;1.10;;;20.20;55.90;;;;;;4089061;28;20063;-43
2022/09/13 04:33:13;;;;;;;4.65;1.30;;;20.20;55.30;;;;;;4095932;28;20391;-40
2022/09/13 04:35:37;;;;;;;4.05;1.42;;;20.30;54.90;;;;;;4091005;28;20043;-39
2022/09/13 04:38:00;;;;;;;5.22;1.83;;;20.30;54.50;;;;;;4098746;28;20419;-41
2022/09/13 04:40:23;;;;;;;4.05;1.50;;;20.30;54.40;;;;;;4093703;28;20465;-40
2022/09/13 04:42:46;;;;;;;4.23;1.97;;;20.40;54.20;;;;;;4093741;28;20059;-42
2022/09/13 04:45:09;;;;;;;5.03;1.83;;;20.40;54.20;;;;;;4095244;28;20360;-42
2022/09/13 04:47:32;;;;;;;3.20;1.52;;;20.50;54.20;;;;;;4088086;28;20031;-44
2022/09/13 04:49:54;;;;;;;6.45;1.27;;;20.50;54.20;;;;;;4091672;28;20035;-44
2022/09/13 04:52:17;;;;;;;4.20;1.58;;;20.60;54.50;;;;;;4088476;28;20122;-41
2022/09/13 04:54:39;;;;;;;3.85;1.10;;;20.60;54.70;;;;;;4098648;28;20054;-43
2022/09/13 04:57:02;;;;;;;2.95;1.20;;;20.70;54.90;;;;;;4095548;28;20407;-41
2022/09/13 04:59:25;;;;;;;2.13;0.75;;;20.80;54.80;;;;;;4097597;28;20039;-43
2022/09/13 05:01:47;;;;;;;2.33;1.00;;;20.90;54.60;;;;;;4097858;28;20478;-46
2022/09/13 05:04:10;;;;;;;2.38;1.00;;;21.00;54.60;;;;;;4094608;28;20353;-45
2022/09/13 05:06:33;;;;;;;2.97;1.00;;;21.10;54.50;;;;;;4073762;28;20544;-42
2022/09/13 05:08:56;;;;;;;4.68;1.10;;;21.20;55.10;;;;;;4099848;28;20039;-45
2022/09/13 05:11:19;;;;;;;1.33;0.90;;;21.30;54.30;;;;;;4094743;28;20047;-43
2022/09/13 05:13:42;;;;;;;1.30;0.90;;;21.30;54.20;;;;;;4095826;28;20045;-41
2022/09/13 05:16:06;;;;;;;1.08;0.80;;;21.40;54.10;;;;;;4093609;28;20102;-41
2022/09/13 05:18:31;;;;;;;4.22;1.17;;;21.50;53.90;;;;;;4100427;28;20042;-42
2022/09/13 05:20:57;;;;;;;3.42;1.00;;;21.50;53.70;;;;;;4099006;28;20043;-41
2022/09/13 05:23:20;;;;;;;3.05;1.02;;;21.60;53.80;;;;;;4096265;28;20047;-44
2022/09/13 05:25:43;;;;;;;3.63;0.98;;;21.50;53.80;;;;;;4097542;28;20042;-44
2022/09/13 05:28:05;;;;;;;0.77;0.57;;;21.60;53.80;;;;;;4093968;28;20086;-41
2022/09/13 05:30:28;;;;;;;4.65;0.88;;;21.60;53.80;;;;;;4095615;28;20047;-39
2022/09/13 05:32:51;;;;;;;3.80;1.00;;;21.60;53.80;;;;;;4101772;28;20031;-44
2022/09/13 05:35:13;;;;;;;1.65;0.85;;;21.60;53.90;;;;;;4093955;28;20938;-43
2022/09/13 05:37:36;;;;;;;3.30;0.85;;;21.60;53.80;;;;;;4098944;28;20121;-40
2022/09/13 05:39:58;;;;;;;1.48;0.82;;;21.60;53.80;;;;;;4097262;28;20467;-44
2022/09/13 05:42:21;;;;;;;2.38;0.70;;;21.60;53.90;;;;;;4093427;28;20181;-45
2022/09/13 05:44:43;;;;;;;2.38;1.10;;;21.60;53.90;;;;;;4100592;28;20037;-44
2022/09/13 05:47:06;;;;;;;1.75;0.65;;;21.60;53.80;;;;;;4098568;28;20042;-44
2022/09/13 05:49:29;;;;;;;1.40;0.80;;;21.70;53.60;;;;;;4093505;28;20038;-40
2022/09/13 05:51:51;;;;;;;2.70;0.75;;;21.70;53.50;;;;;;4094461;28;20039;-46
2022/09/13 05:54:14;;;;;;;1.80;0.60;;;21.80;53.50;;;;;;4099409;28;20159;-43
2022/09/13 05:56:36;;;;;;;1.65;0.80;;;21.90;53.40;;;;;;4099171;28;20522;-43
2022/09/13 05:58:59;;;;;;;2.85;0.60;;;21.90;53.30;;;;;;4101087;28;20043;-43
2022/09/13 06:01:24;;;;;;;1.05;0.70;;;21.90;53.20;;;;;;4098260;28;20101;-47
2022/09/13 06:03:51;;;;;;;1.63;0.98;;;22.00;53.20;;;;;;4099353;28;20117;-43
2022/09/13 06:06:15;;;;;;;3.35;1.52;;;22.00;53.10;;;;;;4103250;28;20047;-40
2022/09/13 06:08:38;;;;;;;3.70;0.80;;;22.00;53.30;;;;;;4099554;28;20043;-39
2022/09/13 06:11:03;;;;;;;3.50;1.07;;;22.00;53.20;;;;;;4101024;28;20118;-40
2022/09/13 06:13:26;;;;;;;3.13;1.35;;;22.00;53.10;;;;;;4099891;28;20308;-40
2022/09/13 06:15:49;;;;;;;3.40;1.60;;;22.00;53.20;;;;;;4099351;28;20039;-41
2022/09/13 06:18:11;;;;;;;3.13;1.63;;;22.00;53.00;;;;;;4099521;28;20062;-41
2022/09/13 06:20:34;;;;;;;4.68;2.50;;;22.00;53.10;;;;;;4093871;28;20055;-43
2022/09/13 06:22:56;;;;;;;3.17;2.00;;;22.00;52.90;;;;;;4087151;28;20095;-40
2022/09/13 06:25:19;;;;;;;4.57;2.40;;;22.00;52.80;;;;;;4099725;28;20050;-41
2022/09/13 06:27:42;;;;;;;4.03;2.22;;;22.00;52.80;;;;;;4099216;28;20483;-40
2022/09/13 06:30:07;;;;;;;3.85;2.55;;;22.00;52.80;;;;;;4098778;28;20031;-42
2022/09/13 06:32:30;;;;;;;3.20;2.00;;;22.00;52.70;;;;;;4105019;28;20085;-40
2022/09/13 06:34:52;;;;;;;2.92;1.80;;;22.00;52.70;;;;;;4087280;28;20039;-41
2022/09/13 06:37:15;;;;;;;2.85;1.65;;;22.00;52.50;;;;;;4098853;28;20042;-41
2022/09/13 06:39:38;;;;;;;3.38;1.92;;;22.00;52.60;;;;;;4097996;28;20126;-40
2022/09/13 06:42:01;;;;;;;4.05;1.80;;;22.00;52.60;;;;;;4097454;28;20062;-41
2022/09/13 06:44:24;;;;;;;4.55;1.92;;;22.00;52.50;;;;;;4101188;28;20521;-42
2022/09/13 06:46:46;;;;;;;2.45;1.65;;;22.00;52.30;;;;;;4095424;28;20047;-41
2022/09/13 06:49:10;;;;;;;3.13;1.60;;;22.00;52.30;;;;;;4095666;28;20054;-40
2022/09/13 06:51:34;;;;;;;1.48;1.20;;;22.00;52.30;;;;;;4096060;28;20517;-40
2022/09/13 06:53:58;;;;;;;1.23;1.13;;;22.00;52.30;;;;;;4092041;28;20070;-43
2022/09/13 06:56:23;;;;;;;1.88;1.02;;;22.00;52.30;;;;;;4095652;28;20037;-44
2022/09/13 06:58:47;;;;;;;6.78;1.92;;;22.00;52.20;;;;;;4102870;28;20043;-42
2022/09/13 07:01:39;;;;;;;1.67;0.95;;;22.00;52.20;;;;;;4099720;28;20089;-41
2022/09/13 07:04:08;;;;;;;1.67;1.20;;;22.00;52.10;;;;;;4101347;28;20305;-40
2022/09/13 07:06:33;;;;;;;3.80;1.20;;;21.90;52.10;;;;;;4096410;28;20039;-40
2022/09/13 07:08:57;;;;;;;1.42;0.85;;;21.90;52.00;;;;;;4094281;28;20394;-42
2022/09/13 07:11:22;;;;;;;4.70;1.30;;;21.90;52.10;;;;;;4102784;28;20490;-44
2022/09/13 07:13:53;;;;;;;2.15;0.80;;;21.90;52.20;;;;;;4094865;28;20081;-40
2022/09/13 07:16:16;;;;;;;1.90;0.77;;;21.80;52.30;;;;;;4097446;28;20061;-41
2022/09/13 07:18:39;;;;;;;10.53;1.27;;;21.80;52.30;;;;;;4094602;28;20414;-41
2022/09/13 07:21:09;;;;;;;3.28;0.88;;;21.70;52.30;;;;;;4103770;28;20324;-40
2022/09/13 07:23:37;;;;;;;1.05;0.75;;;21.70;52.50;;;;;;4097971;28;20058;-40
2022/09/13 07:26:04;;;;;;;2.15;0.60;;;21.70;52.50;;;;;;4100589;28;20055;-42
2022/09/13 07:28:28;;;;;;;2.63;0.80;;;21.60;52.50;;;;;;4099113;28;20039;-40
2022/09/13 07:30:50;;;;;;;3.65;0.98;;;21.60;52.60;;;;;;4095240;28;20089;-45
2022/09/13 07:33:13;;;;;;;3.65;0.90;;;21.60;52.70;;;;;;4096525;28;20779;-40
2022/09/13 07:35:36;;;;;;;1.98;0.57;;;21.50;52.80;;;;;;4099334;28;20073;-40
2022/09/13 07:37:58;;;;;;;2.80;1.23;;;21.50;52.80;;;;;;4097310;28;20126;-41
2022/09/13 07:40:21;;;;;;;2.35;0.95;;;21.50;52.90;;;;;;4100568;28;20568;-41
2022/09/13 07:42:43;;;;;;;1.83;0.85;;;21.50;52.90;;;;;;4093602;28;20051;-40
2022/09/13 07:45:06;;;;;;;2.80;0.93;;;21.40;52.80;;;;;;4098730;28;20045;-40
2022/09/13 07:47:32;;;;;;;3.40;1.70;;;21.40;52.90;;;;;;4102447;28;20055;-39
2022/09/13 07:49:55;;;;;;;2.13;1.30;;;21.40;51.70;;;;;;4098132;28;20042;-40
2022/09/13 07:52:18;;;;;;;2.95;1.60;;;21.30;50.00;;;;;;4099533;28;20038;-40
2022/09/13 07:54:40;;;;;;;2.50;1.40;;;21.30;49.20;;;;;;4098657;28;20522;-40
2022/09/13 07:57:03;;;;;;;5.00;1.80;;;21.20;49.30;;;;;;4100373;28;20551;-40
2022/09/13 07:59:25;;;;;;;6.18;1.55;;;21.10;49.10;;;;;;4097360;28;20129;-39
2022/09/13 08:01:50;;;;;;;6.10;1.65;;;21.10;49.30;;;;;;4097293;28;20054;-40
2022/09/13 08:04:19;;;;;;;8.18;1.70;;;21.00;49.70;;;;;;4099092;28;20066;-39
2022/09/13 08:06:45;;;;;;;8.65;2.38;;;21.00;50.20;;;;;;4098666;28;20074;-40
2022/09/13 08:09:09;;;;;;;13.90;1.85;;;20.90;50.80;;;;;;4100640;28;20574;-42
2022/09/13 08:11:34;;;;;;;6.78;1.83;;;20.90;51.30;;;;;;4095278;28;20256;-40
2022/09/13 08:13:57;;;;;;;6.30;1.65;;;20.90;51.60;;;;;;4097706;28;20042;-45
2022/09/13 08:16:21;;;;;;;6.27;1.87;;;20.90;52.00;;;;;;4092474;28;20435;-40
2022/09/13 08:18:49;;;;;;;4.38;1.20;;;20.90;52.10;;;;;;4096958;28;20093;-42
2022/09/13 08:21:12;;;;;;;2.78;1.30;;;20.90;52.20;;;;;;4098686;28;20904;-41
2022/09/13 08:23:35;;;;;;;4.10;1.10;;;20.90;52.40;;;;;;4101754;28;20568;-43
2022/09/13 08:26:01;;;;;;;5.57;1.27;;;20.90;52.60;;;;;;4101193;28;20464;-39
2022/09/13 08:28:24;;;;;;;5.55;1.55;;;20.90;52.60;;;;;;4098282;28;20046;-40
2022/09/13 08:30:47;;;;;;;5.57;1.48;;;20.90;52.80;;;;;;4099806;28;20529;-44
2022/09/13 08:33:10;;;;;;;2.35;1.10;;;20.90;53.40;;;;;;4091765;28;20315;-39
2022/09/13 08:35:34;;;;;;;3.80;1.55;;;20.80;53.50;;;;;;4096405;28;20054;-41
2022/09/13 08:37:57;;;;;;;4.03;1.42;;;20.80;53.60;;;;;;4098292;28;20077;-40
2022/09/13 08:40:26;;;;;;;2.60;1.10;;;20.80;53.60;;;;;;4094348;28;20047;-41
2022/09/13 08:43:01;;;;;;;2.40;1.30;;;20.80;53.40;;;;;;4095472;28;20634;-40
2022/09/13 08:45:23;;;;;;;1.90;1.38;;;20.80;53.30;;;;;;4102120;28;20035;-44
2022/09/13 08:48:13;;;;;;;4.07;1.65;;;20.80;52.70;;;;;;4099221;28;20102;-43
2022/09/13 08:50:37;;;;;;;9.73;2.70;;;20.80;52.60;;;;;;4097316;28;20643;-40
2022/09/13 08:53:30;;;;;;;8.20;1.85;;;20.80;52.70;;;;;;4103449;28;20043;-38
2022/09/13 08:56:17;;;;;;;8.57;1.90;;;20.70;52.80;;;;;;4094784;28;20034;-40
2022/09/13 08:58:59;;;;;;;6.53;1.45;;;20.70;53.10;;;;;;4100187;28;20090;-42
2022/09/13 09:01:58;;;;;;;10.00;1.83;;;20.70;53.30;;;;;;4099091;28;20146;-39
2022/09/13 09:04:26;;;;;;;6.55;1.35;;;20.70;53.60;;;;;;4064319;29;20519;-39
2022/09/13 09:06:49;;;;;;;4.25;1.10;;;20.70;53.80;;;;;;4100779;28;20042;-40
2022/09/13 09:09:19;;;;;;;5.22;1.33;;;20.60;53.90;;;;;;4099195;28;20162;-39
2022/09/13 09:11:59;;;;;;;7.05;1.88;;;20.70;54.10;;;;;;4096975;28;20039;-39
2022/09/13 09:14:40;;;;;;;1.50;0.85;;;20.60;54.10;;;;;;4095837;28;20423;-39
2022/09/13 09:17:15;;;;;;;4.43;1.15;;;20.60;54.20;;;;;;4098218;28;20469;-39
2022/09/13 09:19:43;;;;;;;3.42;1.15;;;20.60;54.30;;;;;;4095802;28;20035;-39
2022/09/13 09:22:17;;;;;;;2.40;0.80;;;20.60;54.50;;;;;;4098429;28;20149;-42
2022/09/13 09:24:43;;;;;;;4.60;1.00;;;20.50;54.60;;;;;;4095427;28;20503;-40
2022/09/13 09:27:16;;;;;;;2.72;1.20;;;20.50;54.50;;;;;;4098574;28;20560;-41
2022/09/13 09:29:42;;;;;;;3.00;1.40;;;20.50;54.80;;;;;;4095045;28;20460;-42
2022/09/13 09:32:23;;;;;;;12.50;2.00;;;20.40;54.90;;;;;;4097693;28;20038;-45
2022/09/13 09:35:22;;;;;;;19.90;3.20;;;20.50;55.40;;;;;;4092641;28;20035;-39
2022/09/13 09:38:04;;;;;;;16.92;2.33;;;20.50;55.40;;;;;;4098997;28;20121;-42
2022/09/13 09:40:27;;;;;;;24.00;3.83;;;20.40;53.40;;;;;;4101390;28;20077;-39
2022/09/13 09:42:49;;;;;;;33.58;4.90;;;20.40;53.70;;;;;;4098180;28;20456;-40
2022/09/13 09:45:34;;;;;;;41.42;6.00;;;20.40;53.90;;;;;;4092079;28;20458;-40
2022/09/13 09:48:02;;;;;;;52.30;5.03;;;20.40;54.50;;;;;;4095144;28;20067;-39
2022/09/13 09:50:29;;;;;;;44.65;5.15;;;20.40;54.90;;;;;;4099917;28;20058;-41
2022/09/13 09:53:25;;;;;;;36.13;5.45;;;20.40;55.30;;;;;;4101194;28;20201;-40
2022/09/13 09:56:00;;;;;;;36.60;5.50;;;20.30;56.10;;;;;;4082080;28;20049;-41
2022/09/13 09:58:43;;;;;;;36.67;5.75;;;20.40;55.70;;;;;;4093574;28;20043;-38
2022/09/13 10:01:15;;;;;;;48.08;6.35;;;20.30;56.00;;;;;;4094090;28;20412;-39
2022/09/13 10:03:39;;;;;;;35.47;5.20;;;20.30;56.30;;;;;;4098443;28;20577;-39
2022/09/13 10:06:06;;;;;;;14.00;3.03;;;20.30;56.50;;;;;;4097312;28;20453;-40
2022/09/13 10:08:33;;;;;;;7.65;1.98;;;20.30;54.00;;;;;;4094253;28;20034;-38
2022/09/13 10:11:01;;;;;;;7.78;2.13;;;20.30;53.30;;;;;;4099291;28;20045;-38
2022/09/13 10:13:24;;;;;;;7.40;2.13;;;20.30;52.80;;;;;;4097595;28;20505;-41
2022/09/13 10:16:00;;;;;;;16.33;2.33;;;20.30;52.90;;;;;;4096991;28;20845;-40
2022/09/13 10:18:24;;;;;;;12.90;2.42;;;20.30;52.90;;;;;;4099996;28;20031;-41
2022/09/13 10:21:21;;;;;;;7.78;1.63;;;20.20;52.80;;;;;;4096018;28;20050;-39
2022/09/13 10:23:49;;;;;;;4.38;1.63;;;20.20;52.60;;;;;;4100257;28;20046;-38
2022/09/13 10:26:24;;;;;;;2.88;1.55;;;20.10;53.10;;;;;;4097690;28;20044;-43
2022/09/13 10:29:03;;;;;;;3.30;1.50;;;20.10;53.10;;;;;;4100904;28;20829;-42
2022/09/13 10:31:33;;;;;;;6.65;1.95;;;20.10;53.30;;;;;;4094592;28;20042;-42
2022/09/13 10:34:14;;;;;;;5.80;1.83;;;20.10;53.80;;;;;;4098696;28;20145;-44
2022/09/13 10:36:37;;;;;;;2.03;1.17;;;20.00;54.10;;;;;;4094948;28;20038;-44
2022/09/13 10:39:27;;;;;;;29.98;4.63;;;20.10;54.30;;;;;;4096201;28;20649;-40
2022/09/13 10:42:09;;;;;;;25.13;4.20;;;20.10;54.80;;;;;;4097852;28;20051;-40
2022/09/13 10:44:41;;;;;;;20.50;3.85;;;20.00;54.90;;;;;;4094390;28;20530;-45
2022/09/13 10:47:14;;;;;;;20.45;3.00;;;20.00;54.90;;;;;;4085436;28;20073;-38
2022/09/13 10:49:56;;;;;;;21.38;3.60;;;20.10;55.10;;;;;;4093182;28;20039;-38
2022/09/13 10:52:35;;;;;;;18.83;2.92;;;20.10;55.30;;;;;;4098403;28;20039;-39
2022/09/13 10:55:19;;;;;;;10.00;2.38;;;20.10;55.40;;;;;;4096021;28;20047;-38
2022/09/13 10:57:42;;;;;;;8.25;1.80;;;20.10;55.40;;;;;;4089597;28;20047;-38
2022/09/13 11:00:18;;;;;;;8.63;2.00;;;20.10;55.40;;;;;;4092044;28;20043;-38
2022/09/13 11:03:01;;;;;;;8.88;2.03;;;20.20;55.40;;;;;;4087812;28;20106;-38
2022/09/13 11:05:36;;;;;;;6.63;2.05;;;20.20;55.30;;;;;;4087732;28;20400;-41
2022/09/13 11:08:32;;;;;;;7.65;1.70;;;20.20;55.90;;;;;;4092852;28;20047;-39
2022/09/13 11:11:01;;;;;;;2.78;0.90;;;20.20;55.40;;;;;;4094337;28;20031;-40
2022/09/13 11:13:56;;;;;;;6.78;1.83;;;20.20;55.40;;;;;;4098284;28;20217;-39
2022/09/13 11:16:26;;;;;;;3.95;1.30;;;20.20;55.30;;;;;;4098335;28;20035;-39
2022/09/13 11:19:03;;;;;;;4.50;1.10;;;20.20;55.30;;;;;;4094629;28;20057;-39
2022/09/13 11:21:35;;;;;;;4.43;1.10;;;20.20;55.20;;;;;;4084442;28;20476;-38
2022/09/13 11:24:12;;;;;;;4.47;1.23;;;20.20;55.30;;;;;;4095669;28;20442;-38
2022/09/13 11:26:49;;;;;;;2.92;1.00;;;20.30;55.30;;;;;;4096398;28;20229;-39
2022/09/13 11:29:27;;;;;;;3.95;0.90;;;20.20;55.20;;;;;;4094025;28;20046;-38
2022/09/13 11:31:55;;;;;;;2.03;0.85;;;20.30;55.30;;;;;;4093430;28;20497;-37
2022/09/13 11:34:42;;;;;;;5.10;1.23;;;20.30;55.20;;;;;;4094197;28;20145;-38
2022/09/13 11:37:21;;;;;;;3.08;1.00;;;20.30;55.20;;;;;;4095670;28;20442;-38
2022/09/13 11:40:20;;;;;;;4.50;0.90;;;20.30;55.30;;;;;;4093156;28;20047;-38
2022/09/13 11:42:52;;;;;;;2.92;0.95;;;20.30;55.30;;;;;;4092308;28;20051;-38
2022/09/13 11:45:46;;;;;;;1.55;0.90;;;20.30;55.20;;;;;;4095564;28;20238;-38
2022/09/13 11:48:30;;;;;;;2.45;0.88;;;20.30;55.30;;;;;;4094613;28;20101;-39
2022/09/13 11:51:11;;;;;;;2.00;0.90;;;20.30;55.30;;;;;;4096026;28;20089;-37
2022/09/13 11:54:18;;;;;;;1.23;0.60;;;20.30;55.30;;;;;;4095267;28;20133;-43
2022/09/13 11:56:51;;;;;;;1.42;0.98;;;20.30;55.30;;;;;;4094096;28;20398;-37
2022/09/13 11:59:56;;;;;;;3.13;0.85;;;20.30;55.30;;;;;;4095325;28;20046;-38
2022/09/13 12:02:29;;;;;;;1.60;0.80;;;20.30;55.20;;;;;;4069362;28;20307;-38
2022/09/13 12:04:56;;;;;;;5.03;1.08;;;20.30;55.10;;;;;;4100355;28;20046;-39
2022/09/13 12:07:39;;;;;;;1.33;0.80;;;20.30;55.20;;;;;;4097596;28;20050;-40
2022/09/13 12:10:20;;;;;;;1.65;0.68;;;20.30;55.10;;;;;;4095942;28;20034;-41
2022/09/13 12:12:43;;;;;;;4.95;1.27;;;20.30;55.10;;;;;;4098761;28;20034;-44
2022/09/13 12:15:21;;;;;;;8.32;1.20;;;20.20;55.10;;;;;;4100805;28;20453;-39
2022/09/13 12:18:00;;;;;;;6.57;1.25;;;20.20;55.10;;;;;;4098188;28;20045;-39
2022/09/13 12:20:54;;;;;;;8.02;1.27;;;20.20;55.10;;;;;;4098378;28;20055;-38
2022/09/13 12:23:32;;;;;;;3.17;1.00;;;20.20;55.10;;;;;;4095904;28;20049;-39
2022/09/13 12:25:57;;;;;;;4.72;1.42;;;20.20;55.10;;;;;;4096788;28;20035;-39
2022/09/13 12:28:46;;;;;;;1.90;0.95;;;20.10;55.00;;;;;;4096984;28;20422;-37
2022/09/13 12:31:17;;;;;;;2.72;1.17;;;20.10;55.00;;;;;;4078921;28;20043;-40
2022/09/13 12:33:44;;;;;;;2.72;1.15;;;20.10;55.20;;;;;;4099637;28;20502;-42
2022/09/13 12:36:43;;;;;;;1.85;0.82;;;20.10;55.30;;;;;;4100758;28;20070;-39
2022/09/13 12:39:47;;;;;;;2.08;0.82;;;20.00;56.00;;;;;;4098191;28;20031;-43
2022/09/13 12:42:46;;;;;;;2.63;0.90;;;20.00;55.40;;;;;;4099489;28;20415;-38
2022/09/13 12:45:17;;;;;;;3.42;1.63;;;20.00;55.00;;;;;;4098977;28;20074;-40
2022/09/13 12:47:53;;;;;;;4.05;1.38;;;20.00;54.20;;;;;;4096397;28;20125;-42
2022/09/13 12:50:27;;;;;;;3.70;1.25;;;19.90;54.00;;;;;;4096006;28;20129;-38
2022/09/13 12:52:58;;;;;;;1.95;1.30;;;19.90;54.20;;;;;;4096658;28;20609;-46
2022/09/13 12:55:51;;;;;;;0.95;0.85;;;19.90;54.40;;;;;;4098891;28;20451;-49
2022/09/13 12:58:40;;;;;;;3.90;1.10;;;19.80;54.40;;;;;;4099689;28;20039;-42
2022/09/13 13:01:11;;;;;;;2.67;1.23;;;19.80;54.70;;;;;;4083553;28;20051;-43
2022/09/13 13:04:01;;;;;;;2.47;0.77;;;19.80;54.90;;;;;;4094530;28;20349;-46